WetterOnline ( http://www.wetteronline.de )

Wetter aktuell Magdeburg

Aktuelles Wetter: Magdeburg (85m)

6-stündlich | Neueste Meldungen
Ortszeit Temperatur Wetter
Sa, 20.10. 8:00 5.0° C bedeckt
Sa, 20.10. 2:00 4.2° C bewölkt
Fr, 19.10. 20:00 7.0° C wolkig
Fr, 19.10. 14:00 14.0° C wolkenlos
Fr, 19.10. 8:00 4.3° C wolkenlos
Fr, 19.10. 2:00 9.0° C wolkenlos
Do, 18.10. 20:00 14.1° C bedeckt
Do, 18.10. 14:00 14.7° C bedeckt
Ortszeit Temperatur Wetter
Sa, 20.10. 12:30 12.8° C bewölkt
Sa, 20.10. 12:20 12.8° C bewölkt
Sa, 20.10. 12:10 12.5° C bewölkt
Sa, 20.10. 12:00 12.1° C wolkig
Sa, 20.10. 11:50 12.1° C wolkig
Sa, 20.10. 11:40 12.0° C wolkig
Sa, 20.10. 11:30 11.7° C fast wolkenlos
Sa, 20.10. 11:00 11.4° C wolkenlos
Sa, 20.10. 10:30 10.4° C wolkenlos
Sa, 20.10. 10:00 9.0° C wolkig
Sa, 20.10. 9:30 7.6° C bedeckt
Ortszeit Relative Feuchte Sichtweite
Sa, 20.10. 8:00 87% 21 km
Sa, 20.10. 2:00 90% 16 km
Fr, 19.10. 20:00 83% 25 km
Fr, 19.10. 14:00 52% 40 km
Fr, 19.10. 8:00 96% 12 km
Fr, 19.10. 2:00 84% 45 km
Do, 18.10. 20:00 82% 10 km
Do, 18.10. 14:00 79% 8 km
Ortszeit Relative Feuchte Sichtweite
Sa, 20.10. 12:30 53% 30 km
Sa, 20.10. 12:20 53% -
Sa, 20.10. 12:10 54% -
Sa, 20.10. 12:00 56% 35 km
Sa, 20.10. 11:50 56% -
Sa, 20.10. 11:40 56% -
Sa, 20.10. 11:30 57% 30 km
Sa, 20.10. 11:00 57% 30 km
Sa, 20.10. 10:30 63% 40 km
Sa, 20.10. 10:00 71% 27 km
Sa, 20.10. 9:30 77% 30 km
Ortszeit Niederschlagsmenge Niederschlagsart
Sa, 20.10. 8:00 0.0 l/m2 in 12 Std. -
Sa, 20.10. 2:00 0.0 l/m2 in 6 Std. -
Fr, 19.10. 20:00 0.0 l/m2 in 12 Std. -
Fr, 19.10. 14:00 0.0 l/m2 in 6 Std. -
Fr, 19.10. 8:00 0.0 l/m2 in 12 Std. -
Fr, 19.10. 2:00 0.0 l/m2 in 6 Std. -
Do, 18.10. 20:00 0.0 l/m2 in 12 Std. -
Do, 18.10. 14:00 0.0 l/m2 in 6 Std. -
Ortszeit Niederschlagsmenge Niederschlagsart
Sa, 20.10. 12:30 0.0 l/m2 in 1 Std. -
Sa, 20.10. 12:20 keine Meldung -
Sa, 20.10. 12:10 keine Meldung -
Sa, 20.10. 12:00 0.0 l/m2 in 1 Std. -
Sa, 20.10. 11:50 keine Meldung -
Sa, 20.10. 11:40 keine Meldung -
Sa, 20.10. 11:30 0.0 l/m2 in 1 Std. -
Sa, 20.10. 11:00 0.0 l/m2 in 1 Std. -
Sa, 20.10. 10:30 0.0 l/m2 in 1 Std. -
Sa, 20.10. 10:00 0.0 l/m2 in 1 Std. -
Sa, 20.10. 9:30 0.0 l/m2 in 1 Std. -
Ortszeit Stärke Spitze Richtung
km/h Bft. km/h Grad Sektor
Sa, 20.10. 8:00 4 1 11 300° NW
Sa, 20.10. 2:00 4 1 11 280° W
Fr, 19.10. 20:00 4 1 18 360° N
Fr, 19.10. 14:00 7 2 22 20° N
Fr, 19.10. 8:00 6 1 15 340° N
Fr, 19.10. 2:00 9 2 19 360° N
Do, 18.10. 20:00 4 1 18 20° N
Do, 18.10. 14:00 9 2 20 350° N
Ortszeit Stärke Spitze Richtung
km/h Bft. km/h Grad Sektor
Sa, 20.10. 12:30 7 2 19 280° W
Sa, 20.10. 12:20 7 2 - 280° W
Sa, 20.10. 12:10 7 2 - 270° W
Sa, 20.10. 12:00 7 2 14 270° W
Sa, 20.10. 11:50 7 2 - 270° W
Sa, 20.10. 11:40 7 2 - 260° W
Sa, 20.10. 11:30 7 2 15 250° W
Sa, 20.10. 11:00 6 1 9 250° W
Sa, 20.10. 10:30 6 1 9 270° W
Sa, 20.10. 10:00 4 1 7 280° W
Sa, 20.10. 9:30 4 1 7 300° NW
Ortszeit Untergrenze Bedeckung Gattung
total tief tief mittel hoch
Sa, 20.10. 8:00 930 m 8/8 8/8 - - -
Sa, 20.10. 2:00 1440 m 8/8 7/8 - - -
Fr, 19.10. 20:00 10500 m 7/8 0/8 - - -
Fr, 19.10. 14:00 - 0/8 0/8 - - -
Fr, 19.10. 8:00 - 0/8 0/8 - - -
Fr, 19.10. 2:00 - 0/8 0/8 - - -
Do, 18.10. 20:00 750 m 8/8 8/8 - - -
Do, 18.10. 14:00 330 m 8/8 8/8 - - -
Ortszeit Bedeckungsgrad in Achtel und Wolkenuntergrenze
Sa, 20.10. 12:30 4(4800m) 7(7800m) 8(9000m)
Sa, 20.10. 12:20 4(4800m) 7(7800m) 8(9000m)
Sa, 20.10. 12:10 6(4800m) 6(7800m) 8(9000m)
Sa, 20.10. 12:00 3(4800m) 7(9000m) 8(9000m)
Sa, 20.10. 11:50 3(4800m) 7(9000m)
Sa, 20.10. 11:40 2(4800m) 6(9000m)
Sa, 20.10. 11:30 2(9000m)
Sa, 20.10. 11:00 keine Wolken
Sa, 20.10. 10:30 keine Wolken
Sa, 20.10. 10:00 3(1320m)
Sa, 20.10. 9:30 8(1320m)
Ortszeit Luftdruck NN (hPa) Tendenz (hPa in 3 Std.)
Sa, 20.10. 8:00 1029 + 0,9
Sa, 20.10. 2:00 1027 + 0,3
Fr, 19.10. 20:00 1026 + 0,8
Fr, 19.10. 14:00 1026 - 1,1
Fr, 19.10. 8:00 1026 + 0,2
Fr, 19.10. 2:00 1025 + 0,2
Do, 18.10. 20:00 1024 + 1,3
Do, 18.10. 14:00 1022 + 0,1
Ortszeit Luftdruck NN (hPa) Tendenz (hPa in 3 Std.)
Sa, 20.10. 12:30 1030 + 0,2
Sa, 20.10. 12:20 1030 keine Meldung
Sa, 20.10. 12:10 1030 keine Meldung
Sa, 20.10. 12:00 1030 + 0,6
Sa, 20.10. 11:50 1030 keine Meldung
Sa, 20.10. 11:40 1030 keine Meldung
Sa, 20.10. 11:30 1030 + 0,7
Sa, 20.10. 11:00 1030 + 1,0
Sa, 20.10. 10:30 1030 + 1,6
Sa, 20.10. 10:00 1030 + 1,8
Sa, 20.10. 9:30 1030 + 2,1
Ortszeit Schneehöhe (cm)
Sa, 20.10. 8:00 0
Sa, 20.10. 2:00 0
Fr, 19.10. 20:00 0
Fr, 19.10. 14:00 0
Fr, 19.10. 8:00 0
Fr, 19.10. 2:00 0
Do, 18.10. 20:00 0
Do, 18.10. 14:00 0
Ortszeit Schneehöhe (cm)
Sa, 20.10. 12:30 0
Sa, 20.10. 12:20 0
Sa, 20.10. 12:10 0
Sa, 20.10. 12:00 0
Sa, 20.10. 11:50 0
Sa, 20.10. 11:40 0
Sa, 20.10. 11:30 0
Sa, 20.10. 11:00 0
Sa, 20.10. 10:30 0
Sa, 20.10. 10:00 0
Sa, 20.10. 9:30 0
Link zu dieser Seite / Seite empfehlen

Das Wetter in ...